ESSA/ARN METAR and TAF weather

Enter ICAO airport designator
Station Type Date Time Source
ESSA METAR 2019/02/23 02:20 UTC NOAA

ESSA 230220Z 24014KT 9999 BKN010 01/M02 Q1034 R01L/19//95 R08/19//95 R01R/0///95 TEMPO BKN013


Station Type Date Time Source
ESSA Decoded METAR 2019/02/23 02:20 UTC NOAA

Stockholm / Arlanda, Sweden (ESSA) 59-39N 017-57E 61M
Feb 22, 2019 - 09:20 PM EST / 2019.02.23 0220 UTC
Wind: from the WSW (240 degrees) at 16 MPH (14 KT):0
Visibility: greater than 7 mile(s):0
Sky conditions: mostly cloudy
Temperature: 33 F (1 C)
Windchill: 23 F (-5 C):1
Dew Point: 28 F (-2 C)
Relative Humidity: 80%
Pressure (altimeter): 30.53 in. Hg (1034 hPa)
ob: ESSA 230220Z 24014KT 9999 BKN010 01/M02 Q1034 R01L/19//95 R08/19//95 R01R/0///95 TEMPO BKN013
cycle: 2

Station Type Date Time Source
ESSA TAF 2019/02/23 02:42 UTC NOAA

TAF
AMD TAF
AMD ESSA 230238Z 2302/2324 26014KT 9999 BKN006
TEMPO 2302/2312 BKN012 PROB40 2312/2320 SCT015
TEMPO 2316/2324 3000 BR
BECMG 2320/2322 BKN003


Example: see airport list